Terminal Aerodrome Forecast
Issued by NWS

Home | Current Version | Previous Version | Graphics & Text | Print | Product List | Glossary On
Versions: 1 2 3 4 5 6 7 8 9 10 11 12 13 14
000
FTUS43 KIWX 152328
TAFSBN
TAF
KSBN 152328Z 1600/1624 35007KT P6SM SCT250
     FM161000 VRB03KT 4SM BR SCT200
     FM161300 14006KT P6SM SCT040 BKN150=

USA.gov is the U.S. government's official web portal to all federal, state and local government web resources and services.